sensor_id;sensor_type;location;lat;lon;timestamp;P1;durP1;ratioP1;P2;durP2;ratioP2
3083;SDS011;1552;51.952;7.618;2022-10-17T00:00:59;9.00;;;5.87;;
3083;SDS011;1552;51.952;7.618;2022-10-17T00:03:25;7.97;;;6.33;;
3083;SDS011;1552;51.952;7.618;2022-10-17T00:05:51;9.87;;;6.40;;
3083;SDS011;1552;51.952;7.618;2022-10-17T00:08:18;6.10;;;5.50;;
3083;SDS011;1552;51.952;7.618;2022-10-17T00:10:44;6.90;;;6.00;;
3083;SDS011;1552;51.952;7.618;2022-10-17T00:13:12;10.57;;;6.57;;
3083;SDS011;1552;51.952;7.618;2022-10-17T00:15:41;6.80;;;5.70;;
3083;SDS011;1552;51.952;7.618;2022-10-17T00:18:08;8.50;;;5.97;;
3083;SDS011;1552;51.952;7.618;2022-10-17T00:20:34;8.17;;;6.23;;
3083;SDS011;1552;51.952;7.618;2022-10-17T00:23:01;7.73;;;6.17;;
3083;SDS011;1552;51.952;7.618;2022-10-17T00:25:27;6.70;;;6.10;;
3083;SDS011;1552;51.952;7.618;2022-10-17T00:27:53;11.57;;;6.43;;
3083;SDS011;1552;51.952;7.618;2022-10-17T00:30:21;8.23;;;6.30;;
3083;SDS011;1552;51.952;7.618;2022-10-17T00:32:47;10.90;;;6.63;;
3083;SDS011;1552;51.952;7.618;2022-10-17T00:35:13;5.93;;;5.43;;
3083;SDS011;1552;51.952;7.618;2022-10-17T00:37:40;8.70;;;6.90;;
3083;SDS011;1552;51.952;7.618;2022-10-17T00:40:06;8.30;;;6.53;;
3083;SDS011;1552;51.952;7.618;2022-10-17T00:42:33;10.87;;;6.53;;
3083;SDS011;1552;51.952;7.618;2022-10-17T00:45:03;8.13;;;6.80;;
3083;SDS011;1552;51.952;7.618;2022-10-17T00:47:31;6.43;;;5.83;;
3083;SDS011;1552;51.952;7.618;2022-10-17T00:49:57;7.03;;;6.10;;
3083;SDS011;1552;51.952;7.618;2022-10-17T00:52:25;7.93;;;6.20;;
3083;SDS011;1552;51.952;7.618;2022-10-17T00:54:53;8.07;;;6.57;;
3083;SDS011;1552;51.952;7.618;2022-10-17T00:57:21;9.07;;;5.93;;
3083;SDS011;1552;51.952;7.618;2022-10-17T00:59:49;6.47;;;5.77;;
3083;SDS011;1552;51.952;7.618;2022-10-17T01:02:17;6.10;;;5.60;;
3083;SDS011;1552;51.952;7.618;2022-10-17T01:04:45;8.30;;;5.70;;
3083;SDS011;1552;51.952;7.618;2022-10-17T01:07:12;6.90;;;6.23;;
3083;SDS011;1552;51.952;7.618;2022-10-17T01:09:38;7.43;;;6.63;;
3083;SDS011;1552;51.952;7.618;2022-10-17T01:12:06;7.90;;;6.87;;
3083;SDS011;1552;51.952;7.618;2022-10-17T01:14:37;7.50;;;6.70;;
3083;SDS011;1552;51.952;7.618;2022-10-17T01:17:07;8.27;;;6.53;;
3083;SDS011;1552;51.952;7.618;2022-10-17T01:19:42;6.07;;;5.43;;
3083;SDS011;1552;51.952;7.618;2022-10-17T01:22:15;9.90;;;6.63;;
3083;SDS011;1552;51.952;7.618;2022-10-17T01:24:46;7.70;;;6.13;;
3083;SDS011;1552;51.952;7.618;2022-10-17T01:27:28;7.30;;;6.60;;
3083;SDS011;1552;51.952;7.618;2022-10-17T01:30:09;7.83;;;7.03;;
3083;SDS011;1552;51.952;7.618;2022-10-17T01:32:45;10.20;;;6.57;;
3083;SDS011;1552;51.952;7.618;2022-10-17T01:35:13;8.37;;;6.50;;
3083;SDS011;1552;51.952;7.618;2022-10-17T01:37:43;11.73;;;6.37;;
3083;SDS011;1552;51.952;7.618;2022-10-17T01:40:13;6.77;;;5.97;;
3083;SDS011;1552;51.952;7.618;2022-10-17T01:42:41;8.47;;;6.43;;
3083;SDS011;1552;51.952;7.618;2022-10-17T01:45:12;6.93;;;6.20;;
3083;SDS011;1552;51.952;7.618;2022-10-17T01:47:39;7.37;;;6.60;;
3083;SDS011;1552;51.952;7.618;2022-10-17T01:50:09;10.03;;;7.00;;
3083;SDS011;1552;51.952;7.618;2022-10-17T01:52:36;12.43;;;8.20;;
3083;SDS011;1552;51.952;7.618;2022-10-17T01:55:05;10.80;;;8.20;;
3083;SDS011;1552;51.952;7.618;2022-10-17T01:57:34;8.03;;;7.20;;
3083;SDS011;1552;51.952;7.618;2022-10-17T02:00:02;10.90;;;8.17;;
3083;SDS011;1552;51.952;7.618;2022-10-17T02:02:29;9.60;;;6.93;;
3083;SDS011;1552;51.952;7.618;2022-10-17T02:04:56;11.33;;;6.87;;
3083;SDS011;1552;51.952;7.618;2022-10-17T02:07:24;7.23;;;6.23;;
3083;SDS011;1552;51.952;7.618;2022-10-17T02:09:50;6.57;;;5.93;;
3083;SDS011;1552;51.952;7.618;2022-10-17T02:12:21;6.80;;;5.97;;
3083;SDS011;1552;51.952;7.618;2022-10-17T02:14:53;7.60;;;6.57;;
3083;SDS011;1552;51.952;7.618;2022-10-17T02:17:26;6.40;;;5.80;;
3083;SDS011;1552;51.952;7.618;2022-10-17T02:19:57;7.77;;;6.73;;
3083;SDS011;1552;51.952;7.618;2022-10-17T02:22:28;9.20;;;6.67;;
3083;SDS011;1552;51.952;7.618;2022-10-17T02:24:58;11.10;;;6.50;;
3083;SDS011;1552;51.952;7.618;2022-10-17T02:27:29;7.83;;;6.10;;
3083;SDS011;1552;51.952;7.618;2022-10-17T02:29:57;6.30;;;5.70;;
3083;SDS011;1552;51.952;7.618;2022-10-17T02:32:27;7.57;;;6.37;;
3083;SDS011;1552;51.952;7.618;2022-10-17T02:34:54;7.77;;;6.43;;
3083;SDS011;1552;51.952;7.618;2022-10-17T02:37:22;9.17;;;6.00;;
3083;SDS011;1552;51.952;7.618;2022-10-17T02:39:50;7.73;;;5.67;;
3083;SDS011;1552;51.952;7.618;2022-10-17T02:42:16;6.80;;;5.77;;
3083;SDS011;1552;51.952;7.618;2022-10-17T02:44:43;9.03;;;6.67;;
3083;SDS011;1552;51.952;7.618;2022-10-17T02:47:14;10.80;;;7.20;;
3083;SDS011;1552;51.952;7.618;2022-10-17T02:49:44;9.73;;;7.23;;
3083;SDS011;1552;51.952;7.618;2022-10-17T02:52:13;10.30;;;7.53;;
3083;SDS011;1552;51.952;7.618;2022-10-17T02:54:41;10.23;;;7.33;;
3083;SDS011;1552;51.952;7.618;2022-10-17T02:57:11;9.77;;;6.43;;
3083;SDS011;1552;51.952;7.618;2022-10-17T02:59:39;7.97;;;7.07;;
3083;SDS011;1552;51.952;7.618;2022-10-17T03:02:06;10.67;;;7.33;;
3083;SDS011;1552;51.952;7.618;2022-10-17T03:04:32;12.37;;;7.97;;
3083;SDS011;1552;51.952;7.618;2022-10-17T03:06:59;7.37;;;6.67;;
3083;SDS011;1552;51.952;7.618;2022-10-17T03:09:25;9.80;;;6.77;;
3083;SDS011;1552;51.952;7.618;2022-10-17T03:11:51;7.50;;;6.73;;
3083;SDS011;1552;51.952;7.618;2022-10-17T03:14:19;8.47;;;6.70;;
3083;SDS011;1552;51.952;7.618;2022-10-17T03:16:45;7.37;;;6.50;;
3083;SDS011;1552;51.952;7.618;2022-10-17T03:19:12;9.20;;;6.70;;
3083;SDS011;1552;51.952;7.618;2022-10-17T03:21:38;8.97;;;6.80;;
3083;SDS011;1552;51.952;7.618;2022-10-17T03:24:05;11.53;;;6.73;;
3083;SDS011;1552;51.952;7.618;2022-10-17T03:26:31;8.40;;;7.27;;
3083;SDS011;1552;51.952;7.618;2022-10-17T03:28:57;10.73;;;6.37;;
3083;SDS011;1552;51.952;7.618;2022-10-17T03:31:25;7.37;;;6.67;;
3083;SDS011;1552;51.952;7.618;2022-10-17T03:33:51;8.63;;;7.50;;
3083;SDS011;1552;51.952;7.618;2022-10-17T03:36:18;7.17;;;6.43;;
3083;SDS011;1552;51.952;7.618;2022-10-17T03:38:45;11.23;;;6.70;;
3083;SDS011;1552;51.952;7.618;2022-10-17T03:41:12;10.03;;;6.53;;
3083;SDS011;1552;51.952;7.618;2022-10-17T03:43:38;8.17;;;6.50;;
3083;SDS011;1552;51.952;7.618;2022-10-17T03:46:04;6.93;;;5.97;;
3083;SDS011;1552;51.952;7.618;2022-10-17T03:48:32;6.47;;;5.87;;
3083;SDS011;1552;51.952;7.618;2022-10-17T03:50:59;6.37;;;5.77;;
3083;SDS011;1552;51.952;7.618;2022-10-17T03:53:26;8.97;;;6.07;;
3083;SDS011;1552;51.952;7.618;2022-10-17T03:55:52;6.90;;;6.20;;
3083;SDS011;1552;51.952;7.618;2022-10-17T03:58:19;7.53;;;6.30;;
3083;SDS011;1552;51.952;7.618;2022-10-17T04:00:45;7.83;;;5.93;;
3083;SDS011;1552;51.952;7.618;2022-10-17T04:03:12;9.03;;;6.23;;
3083;SDS011;1552;51.952;7.618;2022-10-17T04:05:39;7.07;;;5.67;;
3083;SDS011;1552;51.952;7.618;2022-10-17T04:08:06;8.03;;;5.40;;
3083;SDS011;1552;51.952;7.618;2022-10-17T04:10:32;9.10;;;6.30;;
3083;SDS011;1552;51.952;7.618;2022-10-17T04:12:58;7.90;;;6.53;;
3083;SDS011;1552;51.952;7.618;2022-10-17T04:15:26;8.20;;;6.70;;
3083;SDS011;1552;51.952;7.618;2022-10-17T04:17:55;8.47;;;6.50;;
3083;SDS011;1552;51.952;7.618;2022-10-17T04:20:21;11.73;;;6.40;;
3083;SDS011;1552;51.952;7.618;2022-10-17T04:22:49;6.97;;;6.20;;
3083;SDS011;1552;51.952;7.618;2022-10-17T04:25:15;7.50;;;6.40;;
3083;SDS011;1552;51.952;7.618;2022-10-17T04:27:41;8.07;;;5.83;;
3083;SDS011;1552;51.952;7.618;2022-10-17T04:30:08;8.17;;;6.07;;
3083;SDS011;1552;51.952;7.618;2022-10-17T04:32:35;7.13;;;5.67;;
3083;SDS011;1552;51.952;7.618;2022-10-17T04:35:01;7.80;;;5.57;;
3083;SDS011;1552;51.952;7.618;2022-10-17T04:37:28;9.37;;;6.40;;
3083;SDS011;1552;51.952;7.618;2022-10-17T04:39:56;8.57;;;5.60;;
3083;SDS011;1552;51.952;7.618;2022-10-17T04:42:22;6.90;;;6.13;;
3083;SDS011;1552;51.952;7.618;2022-10-17T04:44:48;8.03;;;5.57;;
3083;SDS011;1552;51.952;7.618;2022-10-17T04:47:15;6.83;;;6.03;;
3083;SDS011;1552;51.952;7.618;2022-10-17T04:49:41;8.80;;;6.33;;
3083;SDS011;1552;51.952;7.618;2022-10-17T04:52:08;9.50;;;6.00;;
3083;SDS011;1552;51.952;7.618;2022-10-17T04:54:35;8.53;;;6.13;;
3083;SDS011;1552;51.952;7.618;2022-10-17T04:57:02;10.90;;;6.57;;
3083;SDS011;1552;51.952;7.618;2022-10-17T04:59:29;8.60;;;6.17;;
3083;SDS011;1552;51.952;7.618;2022-10-17T05:01:55;7.53;;;6.33;;
3083;SDS011;1552;51.952;7.618;2022-10-17T05:04:22;9.70;;;6.43;;
3083;SDS011;1552;51.952;7.618;2022-10-17T05:06:50;8.90;;;6.37;;
3083;SDS011;1552;51.952;7.618;2022-10-17T05:09:16;10.17;;;6.70;;
3083;SDS011;1552;51.952;7.618;2022-10-17T05:11:43;7.90;;;6.07;;
3083;SDS011;1552;51.952;7.618;2022-10-17T05:14:10;9.30;;;6.27;;
3083;SDS011;1552;51.952;7.618;2022-10-17T05:16:37;7.20;;;6.00;;
3083;SDS011;1552;51.952;7.618;2022-10-17T05:19:03;7.70;;;6.37;;
3083;SDS011;1552;51.952;7.618;2022-10-17T05:21:30;8.50;;;6.87;;
3083;SDS011;1552;51.952;7.618;2022-10-17T05:23:56;12.27;;;7.00;;
3083;SDS011;1552;51.952;7.618;2022-10-17T05:26:23;7.77;;;6.40;;
3083;SDS011;1552;51.952;7.618;2022-10-17T05:28:50;8.77;;;6.80;;
3083;SDS011;1552;51.952;7.618;2022-10-17T05:31:18;9.93;;;6.87;;
3083;SDS011;1552;51.952;7.618;2022-10-17T05:33:44;8.43;;;7.00;;
3083;SDS011;1552;51.952;7.618;2022-10-17T05:36:11;10.57;;;6.80;;
3083;SDS011;1552;51.952;7.618;2022-10-17T05:38:37;8.27;;;7.00;;
3083;SDS011;1552;51.952;7.618;2022-10-17T05:41:04;8.97;;;6.80;;
3083;SDS011;1552;51.952;7.618;2022-10-17T05:43:31;8.40;;;6.37;;
3083;SDS011;1552;51.952;7.618;2022-10-17T05:45:58;8.23;;;6.63;;
3083;SDS011;1552;51.952;7.618;2022-10-17T05:48:25;11.00;;;7.60;;
3083;SDS011;1552;51.952;7.618;2022-10-17T05:50:56;8.47;;;7.13;;
3083;SDS011;1552;51.952;7.618;2022-10-17T05:53:22;10.63;;;7.47;;
3083;SDS011;1552;51.952;7.618;2022-10-17T05:55:54;10.67;;;7.47;;
3083;SDS011;1552;51.952;7.618;2022-10-17T05:58:20;11.10;;;7.17;;
3083;SDS011;1552;51.952;7.618;2022-10-17T06:00:46;9.03;;;7.47;;
3083;SDS011;1552;51.952;7.618;2022-10-17T06:03:13;11.67;;;7.30;;
3083;SDS011;1552;51.952;7.618;2022-10-17T06:05:41;7.87;;;6.83;;
3083;SDS011;1552;51.952;7.618;2022-10-17T06:08:07;12.07;;;7.43;;
3083;SDS011;1552;51.952;7.618;2022-10-17T06:10:33;10.80;;;6.97;;
3083;SDS011;1552;51.952;7.618;2022-10-17T06:13:00;13.23;;;7.23;;
3083;SDS011;1552;51.952;7.618;2022-10-17T06:15:26;11.27;;;6.97;;
3083;SDS011;1552;51.952;7.618;2022-10-17T06:17:53;9.27;;;6.90;;
3083;SDS011;1552;51.952;7.618;2022-10-17T06:20:19;8.83;;;6.80;;
3083;SDS011;1552;51.952;7.618;2022-10-17T06:22:46;12.00;;;7.77;;
3083;SDS011;1552;51.952;7.618;2022-10-17T06:25:13;11.13;;;7.27;;
3083;SDS011;1552;51.952;7.618;2022-10-17T06:27:39;11.90;;;6.80;;
3083;SDS011;1552;51.952;7.618;2022-10-17T06:30:06;11.67;;;6.63;;
3083;SDS011;1552;51.952;7.618;2022-10-17T06:32:32;10.90;;;7.07;;
3083;SDS011;1552;51.952;7.618;2022-10-17T06:34:59;11.03;;;7.63;;
3083;SDS011;1552;51.952;7.618;2022-10-17T06:37:25;9.13;;;6.68;;
3083;SDS011;1552;51.952;7.618;2022-10-17T06:39:52;13.20;;;6.53;;
3083;SDS011;1552;51.952;7.618;2022-10-17T06:42:19;11.65;;;6.40;;
3083;SDS011;1552;51.952;7.618;2022-10-17T06:44:45;11.07;;;6.43;;
3083;SDS011;1552;51.952;7.618;2022-10-17T06:47:11;9.30;;;7.00;;
3083;SDS011;1552;51.952;7.618;2022-10-17T06:49:38;12.87;;;7.07;;
3083;SDS011;1552;51.952;7.618;2022-10-17T06:52:04;11.17;;;6.30;;
3083;SDS011;1552;51.952;7.618;2022-10-17T06:54:30;11.07;;;6.23;;
3083;SDS011;1552;51.952;7.618;2022-10-17T06:56:58;7.30;;;6.45;;
3083;SDS011;1552;51.952;7.618;2022-10-17T06:59:25;9.60;;;6.03;;
3083;SDS011;1552;51.952;7.618;2022-10-17T07:01:51;11.23;;;7.25;;
3083;SDS011;1552;51.952;7.618;2022-10-17T07:04:17;6.90;;;5.87;;
3083;SDS011;1552;51.952;7.618;2022-10-17T07:06:44;10.13;;;6.30;;
3083;SDS011;1552;51.952;7.618;2022-10-17T07:09:10;9.55;;;5.88;;
3083;SDS011;1552;51.952;7.618;2022-10-17T07:11:36;11.80;;;6.05;;
3083;SDS011;1552;51.952;7.618;2022-10-17T07:14:05;7.97;;;5.95;;
3083;SDS011;1552;51.952;7.618;2022-10-17T07:16:31;19.45;;;6.93;;
3083;SDS011;1552;51.952;7.618;2022-10-17T07:18:58;9.02;;;5.65;;
3083;SDS011;1552;51.952;7.618;2022-10-17T07:21:24;9.98;;;7.05;;
3083;SDS011;1552;51.952;7.618;2022-10-17T07:23:50;10.90;;;5.55;;
3083;SDS011;1552;51.952;7.618;2022-10-17T07:26:17;11.98;;;6.10;;
3083;SDS011;1552;51.952;7.618;2022-10-17T07:28:44;8.07;;;5.97;;
3083;SDS011;1552;51.952;7.618;2022-10-17T07:31:14;8.13;;;5.53;;
3083;SDS011;1552;51.952;7.618;2022-10-17T07:33:40;7.68;;;5.20;;
3083;SDS011;1552;51.952;7.618;2022-10-17T07:36:07;9.77;;;4.90;;
3083;SDS011;1552;51.952;7.618;2022-10-17T07:38:33;8.73;;;5.93;;
3083;SDS011;1552;51.952;7.618;2022-10-17T07:41:00;6.07;;;5.05;;
3083;SDS011;1552;51.952;7.618;2022-10-17T07:43:27;12.05;;;5.03;;
3083;SDS011;1552;51.952;7.618;2022-10-17T07:45:53;7.68;;;5.82;;
3083;SDS011;1552;51.952;7.618;2022-10-17T07:48:21;9.32;;;5.35;;
3083;SDS011;1552;51.952;7.618;2022-10-17T07:50:48;9.52;;;5.03;;
3083;SDS011;1552;51.952;7.618;2022-10-17T07:53:15;12.10;;;5.53;;
3083;SDS011;1552;51.952;7.618;2022-10-17T07:55:41;6.47;;;4.85;;
3083;SDS011;1552;51.952;7.618;2022-10-17T07:58:08;10.10;;;5.38;;
3083;SDS011;1552;51.952;7.618;2022-10-17T08:00:35;6.95;;;5.28;;
3083;SDS011;1552;51.952;7.618;2022-10-17T08:03:02;11.45;;;5.30;;
3083;SDS011;1552;51.952;7.618;2022-10-17T08:05:30;11.35;;;5.38;;
3083;SDS011;1552;51.952;7.618;2022-10-17T08:07:56;8.18;;;5.10;;
3083;SDS011;1552;51.952;7.618;2022-10-17T08:10:22;7.18;;;4.80;;
3083;SDS011;1552;51.952;7.618;2022-10-17T08:12:53;5.70;;;4.78;;
3083;SDS011;1552;51.952;7.618;2022-10-17T08:15:20;10.48;;;5.70;;
3083;SDS011;1552;51.952;7.618;2022-10-17T08:17:46;7.35;;;4.70;;
3083;SDS011;1552;51.952;7.618;2022-10-17T08:20:12;6.68;;;4.65;;
3083;SDS011;1552;51.952;7.618;2022-10-17T08:22:40;9.20;;;4.68;;
3083;SDS011;1552;51.952;7.618;2022-10-17T08:25:07;6.00;;;4.80;;
3083;SDS011;1552;51.952;7.618;2022-10-17T08:27:33;6.28;;;5.15;;
3083;SDS011;1552;51.952;7.618;2022-10-17T08:30:00;6.25;;;5.20;;
3083;SDS011;1552;51.952;7.618;2022-10-17T08:32:26;7.97;;;4.93;;
3083;SDS011;1552;51.952;7.618;2022-10-17T08:34:54;7.95;;;5.43;;
3083;SDS011;1552;51.952;7.618;2022-10-17T08:37:21;6.40;;;4.40;;
3083;SDS011;1552;51.952;7.618;2022-10-17T08:39:49;5.93;;;4.50;;
3083;SDS011;1552;51.952;7.618;2022-10-17T08:42:28;7.15;;;4.35;;
3083;SDS011;1552;51.952;7.618;2022-10-17T08:44:58;6.68;;;4.60;;
3083;SDS011;1552;51.952;7.618;2022-10-17T08:47:26;9.07;;;4.85;;
3083;SDS011;1552;51.952;7.618;2022-10-17T08:49:55;11.90;;;4.55;;
3083;SDS011;1552;51.952;7.618;2022-10-17T08:52:25;6.45;;;4.38;;
3083;SDS011;1552;51.952;7.618;2022-10-17T08:54:56;8.60;;;4.55;;
3083;SDS011;1552;51.952;7.618;2022-10-17T08:57:23;10.63;;;4.50;;
3083;SDS011;1552;51.952;7.618;2022-10-17T08:59:51;8.70;;;4.47;;
3083;SDS011;1552;51.952;7.618;2022-10-17T09:02:33;8.07;;;3.72;;
3083;SDS011;1552;51.952;7.618;2022-10-17T09:05:09;9.15;;;4.00;;
3083;SDS011;1552;51.952;7.618;2022-10-17T09:07:41;13.23;;;4.93;;
3083;SDS011;1552;51.952;7.618;2022-10-17T09:10:12;6.70;;;4.38;;
3083;SDS011;1552;51.952;7.618;2022-10-17T09:12:42;6.13;;;4.18;;
3083;SDS011;1552;51.952;7.618;2022-10-17T09:15:21;6.63;;;3.83;;
3083;SDS011;1552;51.952;7.618;2022-10-17T09:17:51;8.07;;;4.15;;
3083;SDS011;1552;51.952;7.618;2022-10-17T09:20:19;7.75;;;4.20;;
3083;SDS011;1552;51.952;7.618;2022-10-17T09:22:46;7.50;;;4.70;;
3083;SDS011;1552;51.952;7.618;2022-10-17T09:25:16;6.60;;;3.90;;
3083;SDS011;1552;51.952;7.618;2022-10-17T09:27:44;7.53;;;4.10;;
3083;SDS011;1552;51.952;7.618;2022-10-17T09:30:18;8.13;;;4.10;;
3083;SDS011;1552;51.952;7.618;2022-10-17T09:32:46;6.65;;;3.92;;
3083;SDS011;1552;51.952;7.618;2022-10-17T09:35:12;5.70;;;3.90;;
3083;SDS011;1552;51.952;7.618;2022-10-17T09:37:40;5.05;;;3.75;;
3083;SDS011;1552;51.952;7.618;2022-10-17T09:40:07;7.05;;;3.97;;
3083;SDS011;1552;51.952;7.618;2022-10-17T09:42:39;7.18;;;4.10;;
3083;SDS011;1552;51.952;7.618;2022-10-17T09:45:13;5.60;;;3.85;;
3083;SDS011;1552;51.952;7.618;2022-10-17T09:47:43;5.82;;;4.38;;
3083;SDS011;1552;51.952;7.618;2022-10-17T09:50:13;8.40;;;4.38;;
3083;SDS011;1552;51.952;7.618;2022-10-17T09:52:41;7.40;;;3.50;;
3083;SDS011;1552;51.952;7.618;2022-10-17T09:55:14;5.07;;;3.78;;
3083;SDS011;1552;51.952;7.618;2022-10-17T09:57:52;6.47;;;3.75;;
3083;SDS011;1552;51.952;7.618;2022-10-17T10:00:20;5.78;;;3.80;;
3083;SDS011;1552;51.952;7.618;2022-10-17T10:02:46;6.15;;;3.85;;
3083;SDS011;1552;51.952;7.618;2022-10-17T10:05:14;8.70;;;4.15;;
3083;SDS011;1552;51.952;7.618;2022-10-17T10:07:41;5.35;;;3.88;;
3083;SDS011;1552;51.952;7.618;2022-10-17T10:12:40;9.63;;;3.90;;
3083;SDS011;1552;51.952;7.618;2022-10-17T10:17:49;6.07;;;3.40;;
3083;SDS011;1552;51.952;7.618;2022-10-17T10:20:26;8.05;;;4.30;;
3083;SDS011;1552;51.952;7.618;2022-10-17T10:23:06;6.82;;;3.97;;
3083;SDS011;1552;51.952;7.618;2022-10-17T10:25:32;8.93;;;3.95;;
3083;SDS011;1552;51.952;7.618;2022-10-17T10:27:59;5.53;;;3.40;;
3083;SDS011;1552;51.952;7.618;2022-10-17T10:30:26;6.65;;;3.75;;
3083;SDS011;1552;51.952;7.618;2022-10-17T10:32:55;8.13;;;3.97;;
3083;SDS011;1552;51.952;7.618;2022-10-17T10:35:22;7.00;;;3.42;;
3083;SDS011;1552;51.952;7.618;2022-10-17T10:37:51;6.13;;;3.42;;
3083;SDS011;1552;51.952;7.618;2022-10-17T10:40:19;5.65;;;3.40;;
3083;SDS011;1552;51.952;7.618;2022-10-17T10:42:46;11.18;;;4.35;;
3083;SDS011;1552;51.952;7.618;2022-10-17T10:45:14;6.00;;;4.35;;
3083;SDS011;1552;51.952;7.618;2022-10-17T10:47:48;9.52;;;3.75;;
3083;SDS011;1552;51.952;7.618;2022-10-17T10:50:19;7.65;;;3.85;;
3083;SDS011;1552;51.952;7.618;2022-10-17T10:52:49;5.35;;;3.70;;
3083;SDS011;1552;51.952;7.618;2022-10-17T10:55:20;7.72;;;3.65;;
3083;SDS011;1552;51.952;7.618;2022-10-17T10:57:48;7.95;;;3.63;;
3083;SDS011;1552;51.952;7.618;2022-10-17T11:00:17;6.03;;;3.67;;
3083;SDS011;1552;51.952;7.618;2022-10-17T11:02:48;6.30;;;3.50;;
3083;SDS011;1552;51.952;7.618;2022-10-17T11:05:19;9.35;;;3.55;;
3083;SDS011;1552;51.952;7.618;2022-10-17T11:07:49;6.45;;;3.72;;
3083;SDS011;1552;51.952;7.618;2022-10-17T11:10:19;7.20;;;3.65;;
3083;SDS011;1552;51.952;7.618;2022-10-17T11:12:47;7.20;;;3.78;;
3083;SDS011;1552;51.952;7.618;2022-10-17T11:18:01;7.05;;;4.00;;
3083;SDS011;1552;51.952;7.618;2022-10-17T11:20:31;7.10;;;4.18;;
3083;SDS011;1552;51.952;7.618;2022-10-17T11:23:00;12.85;;;4.05;;
3083;SDS011;1552;51.952;7.618;2022-10-17T11:25:30;8.15;;;3.95;;
3083;SDS011;1552;51.952;7.618;2022-10-17T11:27:57;8.00;;;4.07;;
3083;SDS011;1552;51.952;7.618;2022-10-17T11:30:23;5.55;;;3.90;;
3083;SDS011;1552;51.952;7.618;2022-10-17T11:32:54;7.30;;;3.95;;
3083;SDS011;1552;51.952;7.618;2022-10-17T11:35:22;7.07;;;4.22;;
3083;SDS011;1552;51.952;7.618;2022-10-17T11:37:52;7.97;;;3.60;;
3083;SDS011;1552;51.952;7.618;2022-10-17T11:40:21;8.27;;;3.67;;
3083;SDS011;1552;51.952;7.618;2022-10-17T11:42:50;6.20;;;4.25;;
3083;SDS011;1552;51.952;7.618;2022-10-17T11:45:18;9.68;;;4.55;;
3083;SDS011;1552;51.952;7.618;2022-10-17T11:47:46;11.00;;;4.95;;
3083;SDS011;1552;51.952;7.618;2022-10-17T11:50:19;10.30;;;4.70;;
3083;SDS011;1552;51.952;7.618;2022-10-17T11:52:47;12.27;;;4.63;;
3083;SDS011;1552;51.952;7.618;2022-10-17T11:55:18;6.28;;;4.38;;
3083;SDS011;1552;51.952;7.618;2022-10-17T11:57:55;7.75;;;4.32;;
3083;SDS011;1552;51.952;7.618;2022-10-17T12:00:28;10.30;;;4.35;;
3083;SDS011;1552;51.952;7.618;2022-10-17T12:02:58;9.52;;;4.30;;
3083;SDS011;1552;51.952;7.618;2022-10-17T12:05:26;11.68;;;4.22;;
3083;SDS011;1552;51.952;7.618;2022-10-17T12:08:17;7.25;;;3.83;;
3083;SDS011;1552;51.952;7.618;2022-10-17T12:10:50;8.35;;;4.18;;
3083;SDS011;1552;51.952;7.618;2022-10-17T12:19:13;9.65;;;3.95;;
3083;SDS011;1552;51.952;7.618;2022-10-17T12:21:52;5.57;;;4.28;;
3083;SDS011;1552;51.952;7.618;2022-10-17T12:24:23;7.20;;;4.00;;
3083;SDS011;1552;51.952;7.618;2022-10-17T12:26:53;5.95;;;3.60;;
3083;SDS011;1552;51.952;7.618;2022-10-17T12:29:22;6.15;;;3.45;;
3083;SDS011;1552;51.952;7.618;2022-10-17T12:31:51;5.43;;;3.83;;
3083;SDS011;1552;51.952;7.618;2022-10-17T12:34:17;10.55;;;4.40;;
3083;SDS011;1552;51.952;7.618;2022-10-17T12:36:44;7.13;;;4.18;;
3083;SDS011;1552;51.952;7.618;2022-10-17T12:41:57;9.98;;;4.82;;
3083;SDS011;1552;51.952;7.618;2022-10-17T12:44:34;6.50;;;3.95;;
3083;SDS011;1552;51.952;7.618;2022-10-17T12:49:43;7.22;;;3.97;;
3083;SDS011;1552;51.952;7.618;2022-10-17T12:52:20;6.70;;;4.20;;
3083;SDS011;1552;51.952;7.618;2022-10-17T12:54:49;8.68;;;4.38;;
3083;SDS011;1552;51.952;7.618;2022-10-17T12:57:19;7.43;;;3.67;;
3083;SDS011;1552;51.952;7.618;2022-10-17T12:59:46;8.35;;;4.60;;
3083;SDS011;1552;51.952;7.618;2022-10-17T13:02:19;8.13;;;3.97;;
3083;SDS011;1552;51.952;7.618;2022-10-17T13:04:46;6.20;;;4.07;;
3083;SDS011;1552;51.952;7.618;2022-10-17T13:07:15;10.48;;;4.30;;
3083;SDS011;1552;51.952;7.618;2022-10-17T13:09:42;7.93;;;4.65;;
3083;SDS011;1552;51.952;7.618;2022-10-17T13:12:11;7.22;;;4.07;;
3083;SDS011;1552;51.952;7.618;2022-10-17T13:14:40;8.13;;;5.32;;
3083;SDS011;1552;51.952;7.618;2022-10-17T13:17:18;6.13;;;4.18;;
3083;SDS011;1552;51.952;7.618;2022-10-17T13:19:45;8.65;;;4.43;;
3083;SDS011;1552;51.952;7.618;2022-10-17T13:22:13;6.60;;;4.75;;
3083;SDS011;1552;51.952;7.618;2022-10-17T13:24:40;9.98;;;5.50;;
3083;SDS011;1552;51.952;7.618;2022-10-17T13:27:20;6.38;;;4.70;;
3083;SDS011;1552;51.952;7.618;2022-10-17T13:29:48;7.35;;;5.05;;
3083;SDS011;1552;51.952;7.618;2022-10-17T13:32:15;7.95;;;5.25;;
3083;SDS011;1552;51.952;7.618;2022-10-17T13:34:41;8.80;;;4.97;;
3083;SDS011;1552;51.952;7.618;2022-10-17T13:37:09;7.18;;;4.30;;
3083;SDS011;1552;51.952;7.618;2022-10-17T13:39:37;6.65;;;4.45;;
3083;SDS011;1552;51.952;7.618;2022-10-17T13:42:03;7.30;;;4.93;;
3083;SDS011;1552;51.952;7.618;2022-10-17T13:44:32;5.85;;;4.43;;
3083;SDS011;1552;51.952;7.618;2022-10-17T13:47:00;7.82;;;4.15;;
3083;SDS011;1552;51.952;7.618;2022-10-17T13:49:29;6.68;;;4.75;;
3083;SDS011;1552;51.952;7.618;2022-10-17T13:51:56;7.15;;;4.47;;
3083;SDS011;1552;51.952;7.618;2022-10-17T13:54:34;7.30;;;4.90;;
3083;SDS011;1552;51.952;7.618;2022-10-17T13:57:00;6.18;;;4.90;;
3083;SDS011;1552;51.952;7.618;2022-10-17T13:59:28;8.02;;;5.20;;
3083;SDS011;1552;51.952;7.618;2022-10-17T14:01:56;7.82;;;5.03;;
3083;SDS011;1552;51.952;7.618;2022-10-17T14:04:27;8.90;;;5.53;;
3083;SDS011;1552;51.952;7.618;2022-10-17T14:06:53;10.15;;;5.82;;
3083;SDS011;1552;51.952;7.618;2022-10-17T14:09:20;8.50;;;5.10;;
3083;SDS011;1552;51.952;7.618;2022-10-17T14:11:55;11.88;;;6.00;;
3083;SDS011;1552;51.952;7.618;2022-10-17T14:14:22;6.50;;;5.20;;
3083;SDS011;1552;51.952;7.618;2022-10-17T14:16:49;8.45;;;5.00;;
3083;SDS011;1552;51.952;7.618;2022-10-17T14:19:19;11.77;;;5.30;;
3083;SDS011;1552;51.952;7.618;2022-10-17T14:21:51;8.18;;;4.82;;
3083;SDS011;1552;51.952;7.618;2022-10-17T14:24:26;5.88;;;5.10;;
3083;SDS011;1552;51.952;7.618;2022-10-17T14:26:52;9.77;;;5.40;;
3083;SDS011;1552;51.952;7.618;2022-10-17T14:29:20;8.75;;;5.25;;
3083;SDS011;1552;51.952;7.618;2022-10-17T14:31:47;8.23;;;4.68;;
3083;SDS011;1552;51.952;7.618;2022-10-17T14:34:19;8.15;;;5.38;;
3083;SDS011;1552;51.952;7.618;2022-10-17T14:36:46;8.13;;;5.15;;
3083;SDS011;1552;51.952;7.618;2022-10-17T14:39:18;9.82;;;5.20;;
3083;SDS011;1552;51.952;7.618;2022-10-17T14:41:45;8.95;;;4.97;;
3083;SDS011;1552;51.952;7.618;2022-10-17T14:44:14;8.32;;;4.75;;
3083;SDS011;1552;51.952;7.618;2022-10-17T14:46:43;8.52;;;4.95;;
3083;SDS011;1552;51.952;7.618;2022-10-17T14:49:14;6.85;;;4.88;;
3083;SDS011;1552;51.952;7.618;2022-10-17T14:54:24;11.48;;;5.60;;
3083;SDS011;1552;51.952;7.618;2022-10-17T14:56:53;6.80;;;4.78;;
3083;SDS011;1552;51.952;7.618;2022-10-17T14:59:20;10.07;;;5.88;;
3083;SDS011;1552;51.952;7.618;2022-10-17T15:01:49;11.80;;;5.18;;
3083;SDS011;1552;51.952;7.618;2022-10-17T15:04:15;9.18;;;6.13;;
3083;SDS011;1552;51.952;7.618;2022-10-17T15:06:43;11.80;;;5.45;;
3083;SDS011;1552;51.952;7.618;2022-10-17T15:09:10;11.82;;;5.32;;
3083;SDS011;1552;51.952;7.618;2022-10-17T15:11:37;8.90;;;4.97;;
3083;SDS011;1552;51.952;7.618;2022-10-17T15:14:04;8.75;;;5.47;;
3083;SDS011;1552;51.952;7.618;2022-10-17T15:16:31;10.73;;;5.88;;
3083;SDS011;1552;51.952;7.618;2022-10-17T15:18:57;11.07;;;6.00;;
3083;SDS011;1552;51.952;7.618;2022-10-17T15:21:24;12.95;;;5.70;;
3083;SDS011;1552;51.952;7.618;2022-10-17T15:23:52;8.55;;;4.90;;
3083;SDS011;1552;51.952;7.618;2022-10-17T15:26:19;9.45;;;5.07;;
3083;SDS011;1552;51.952;7.618;2022-10-17T15:28:47;11.50;;;5.72;;
3083;SDS011;1552;51.952;7.618;2022-10-17T15:31:14;6.30;;;4.90;;
3083;SDS011;1552;51.952;7.618;2022-10-17T15:33:41;9.82;;;5.20;;
3083;SDS011;1552;51.952;7.618;2022-10-17T15:36:17;12.50;;;5.40;;
3083;SDS011;1552;51.952;7.618;2022-10-17T15:38:44;10.88;;;4.95;;
3083;SDS011;1552;51.952;7.618;2022-10-17T15:41:10;10.80;;;4.63;;